الصفحة الرئيسية
METAR-TAF:

METAR-TAF

مطار :

زغرب, كرواتيا

دائرة عرض: 45-44N, خط طول: 016-04E, ارتفاع: 106 متر

مراقبة الطقس الحالي

تاريخ ووقت الإصدار 32 دقيقة قبل الساعة 11:30UTC
ريح 6 عقدة من الشرق/الجنوب الشرقي, الاتجاه يتراوح بين الشرق/الشمال الشرقي و الجنوب
درجة الحرارة 27°درجة مئوية
الرطوبة 54%
ضغط 1019 hPa
الرؤية 10 كم أو أكثر
غيوم قليلة على ارتفاع 4300 قدم

METAR: LDZA 271130Z 12006KT 070V190 9999 FEW043 27/17 Q1019 NOSIG

زمن: 14:02 (12:02 UTC)

توقعات

تاريخ ووقت الإصدار 37 دقيقة قبل الساعة 11:25UTC
التوقعات صالحة من27 الساعة 12 UTC إلى 28 الساعة 12 UTC
ريح 5 عقدة من الشرق/الشمال الشرقي
الرؤية 10 كم أو أكثر
غيوم متفرقة على ارتفاع 4500 قدم
نظرية الاحتمالات 30% :
مؤقت
من 27 الساعة 14 UTC إلى 27 الساعة 19 UTC
غيوم قليلة على ارتفاع 3000 قدم, مزنة ركامية.
غيوم مفككة على ارتفاع 3500 قدم
عاصفة رعدية, مطر

TAF: LDZA 271125Z 2712/2812 07005KT 9999 SCT045 TX28/2714Z TN15/2803Z PROB30 TEMPO 2714/2719 TSRA FEW030CB BKN035

أرصاد الطقس والتوقعات من أكثر من 4000 مطار (تقارير الطقس للمطار METAR والتنبؤ بالطقس بالمطارTAF).

المحطات المتاحة هي النقط الصفراء والحمراء على الخريطة.

حرك المؤشر فوق النقطة لمعرفة اسم المحطة.

ثم انقر لمعرفة أرصاد وتوقعات الطقس.

لتغيير الخارطة: اضغط على الأزرار الخضراء مع رمز الصليب الأسود للتكبير. على الزر الأخضر مع شرطة للتصغير، أو على الأسهم الخضراء للخرائط المجاورة.


METAR-TAF: